Impacts TAF Board
For situational awareness. Not to be used for flight planning purposes.
IDs:

KDFW - Dallas-Ft Worth Intl, TX, US

Issued at 2321 UTC 23 May 2019
Updated at 0054 UTC 24 May 2019
Potential Impact None Slight Moderate High
Time2353Z 24/01Z 24/02Z 24/03Z 24/04Z 24/05Z 24/06Z 24/07Z 24/08Z 24/09Z 24/10Z 24/11Z 24/12Z 24/13Z>>
Type OBS PRVL PRVL PRVL PRVL PRVL PRVL PRVL PRVL PRVL PRVL PRVL PRVL PRVL
VIS 10 >6 >6 >6 >6 >6 >6 >6 >6 >6 >6 >6 >6 >6
CIG -- -- -- -- -- -- 20 20 20 20 20 20 20 20
Cover FEW SCT SCT SCT SCT SCT BKN BKN BKN BKN BKN BKN BKN BKN
FltCat VFR VFR VFR VFR VFR VFR MVFR MVFR MVFR MVFR MVFR MVFR MVFR MVFR
WX -- -- -- -- -- -- -- -- -- -- -- -- -- --
WDir 140 150 150 150 150 150 150 150 150 150 150 150 150 150
WSpd 21 16 16 16 16 16 15 15 15 15 15 15 15 15
WGst 30 -- -- -- -- -- -- -- -- -- -- -- -- --
Raw TAF
KDFW 232321Z 2400/2506 15018G28KT P6SM SCT050
  FM240100 15016KT P6SM SCT050
  FM240600 15015KT P6SM SCT015 BKN020
  FM241500 17017G27KT P6SM BKN040


Raw METAR
KDFW 232353Z 14021G30KT 10SM FEW055 31/21 A2988 RMK AO2 PK WND 13030/2345 SLP109 T03060206 10322 20294 58014
KDFW 232253Z 15020G29KT 10SM FEW055 31/20 A2990 RMK AO2 PK WND 14029/2249 SLP116 T03110200
KDFW 232153Z 16020G30KT 10SM SCT050 32/19 A2991 RMK AO2 PK WND 15030/2150 SLP119 T03170194

METAR Board
Radar Display
Forecast Discussion
For situational awareness. Not to be used for flight planning purposes.